createdAt,value
2023-04-19T00:01:52.348Z,100437.48
2023-04-19T00:04:21.622Z,100434.91
2023-04-19T00:06:52.186Z,100428.48
2023-04-19T00:09:22.540Z,100430.85
2023-04-19T00:11:52.853Z,100430.91
2023-04-19T00:14:23.742Z,100435.48
2023-04-19T00:16:53.516Z,100431.59
2023-04-19T00:19:23.492Z,100430.38
2023-04-19T00:21:52.659Z,100430.79
2023-04-19T00:24:20.866Z,100430.26
2023-04-19T00:26:49.032Z,100429.12
2023-04-19T00:29:18.532Z,100425.91
2023-04-19T00:31:47.327Z,100426.27
2023-04-19T00:34:15.899Z,100425.55
2023-04-19T00:36:44.427Z,100419.55
2023-04-19T00:39:15.668Z,100417.36
2023-04-19T00:41:43.858Z,100414.53
2023-04-19T00:44:14.762Z,100414.45
2023-04-19T00:46:46.734Z,100412.00
2023-04-19T00:49:18.549Z,100414.91
2023-04-19T00:51:47.782Z,100413.30
2023-04-19T00:54:17.714Z,100406.77
2023-04-19T00:56:48.630Z,100398.19
2023-04-19T00:59:18.699Z,100401.27
2023-04-19T01:01:52.076Z,100401.42
2023-04-19T01:04:22.769Z,100396.93
2023-04-19T01:06:54.291Z,100400.44
2023-04-19T01:09:24.797Z,100398.95
2023-04-19T01:11:54.353Z,100397.98
2023-04-19T01:14:24.588Z,100396.92
2023-04-19T01:16:55.069Z,100397.38
2023-04-19T01:19:23.388Z,100394.02
2023-04-19T01:21:53.016Z,100389.16
2023-04-19T01:24:21.229Z,100386.61
2023-04-19T01:26:51.561Z,100385.11
2023-04-19T01:29:22.447Z,100386.05
2023-04-19T01:31:54.190Z,100387.02
2023-04-19T01:34:23.531Z,100389.63
2023-04-19T01:36:52.563Z,100384.60
2023-04-19T01:39:22.403Z,100386.64
2023-04-19T01:41:50.782Z,100386.84
2023-04-19T01:44:19.614Z,100381.87
2023-04-19T01:46:50.248Z,100384.23
2023-04-19T01:49:20.557Z,100380.84
2023-04-19T01:51:50.359Z,100378.38
2023-04-19T01:54:19.022Z,100379.59
2023-04-19T01:56:50.441Z,100380.27
2023-04-19T01:59:18.757Z,100380.40
2023-04-19T02:01:47.994Z,100377.92
2023-04-19T02:04:16.636Z,100376.17
2023-04-19T02:06:45.478Z,100375.92
2023-04-19T02:09:14.912Z,100373.35
2023-04-19T02:11:44.512Z,100370.29
2023-04-19T02:14:18.211Z,100370.16
2023-04-19T02:16:47.912Z,100372.27
2023-04-19T02:19:16.400Z,100368.31
2023-04-19T02:21:44.757Z,100369.89
2023-04-19T02:24:18.138Z,100367.42
2023-04-19T02:26:46.373Z,100366.84
2023-04-19T02:29:21.268Z,100369.81
2023-04-19T02:31:50.532Z,100372.91
2023-04-19T02:34:28.996Z,100377.25
2023-04-19T02:36:58.394Z,100374.16
2023-04-19T02:39:27.345Z,100375.33
2023-04-19T02:41:56.177Z,100378.02
2023-04-19T02:44:24.928Z,100377.38
2023-04-19T02:46:53.354Z,100381.38
2023-04-19T02:49:22.648Z,100381.46
2023-04-19T02:51:55.511Z,100384.62
2023-04-19T02:54:26.962Z,100381.16
2023-04-19T02:56:55.298Z,100376.66
2023-04-19T02:59:23.709Z,100377.77
2023-04-19T03:01:52.030Z,100372.92
2023-04-19T03:04:23.094Z,100373.92
2023-04-19T03:06:52.410Z,100370.61
2023-04-19T03:09:23.096Z,100369.91
2023-04-19T03:11:54.117Z,100367.83
2023-04-19T03:14:23.458Z,100369.21
2023-04-19T03:16:56.810Z,100370.05
2023-04-19T03:19:25.182Z,100368.23
2023-04-19T03:21:54.714Z,100365.89
2023-04-19T03:24:32.751Z,100365.52
2023-04-19T03:27:09.789Z,100362.54
2023-04-19T03:29:38.071Z,100360.86
2023-04-19T03:32:12.763Z,100354.55
2023-04-19T03:34:41.443Z,100356.02
2023-04-19T03:37:10.846Z,100352.96
2023-04-19T03:39:39.546Z,100352.79
2023-04-19T03:42:09.309Z,100354.88
2023-04-19T03:45:10.894Z,100357.20
2023-04-19T03:47:42.488Z,100360.16
2023-04-19T03:50:11.555Z,100358.44
2023-04-19T03:52:40.584Z,100359.30
2023-04-19T03:55:12.489Z,100353.02
2023-04-19T03:57:41.761Z,100355.48
2023-04-19T04:00:16.951Z,100352.89
2023-04-19T04:02:48.027Z,100349.84
2023-04-19T04:05:16.697Z,100351.13
2023-04-19T04:07:46.207Z,100353.12
2023-04-19T04:10:14.900Z,100355.66
2023-04-19T04:12:44.510Z,100354.92
2023-04-19T04:15:16.450Z,100355.79
2023-04-19T04:17:48.660Z,100352.38
2023-04-19T04:20:17.681Z,100353.07
2023-04-19T04:22:48.298Z,100356.50
2023-04-19T04:25:19.162Z,100354.64
2023-04-19T04:27:52.142Z,100345.33
2023-04-19T04:30:21.947Z,100347.22
2023-04-19T04:32:51.624Z,100346.39
2023-04-19T04:35:21.090Z,100354.13
2023-04-19T04:38:00.412Z,100353.23
2023-04-19T04:40:29.549Z,100355.27
2023-04-19T04:43:01.334Z,100353.20
2023-04-19T04:45:29.993Z,100356.61
2023-04-19T04:47:58.706Z,100360.98
2023-04-19T04:50:28.053Z,100360.31
2023-04-19T04:52:57.977Z,100365.64
2023-04-19T04:55:31.280Z,100369.00
2023-04-19T04:58:00.098Z,100368.98
2023-04-19T05:00:43.532Z,100372.92
2023-04-19T05:03:12.186Z,100376.02
2023-04-19T05:05:49.431Z,100377.39
2023-04-19T05:08:27.326Z,100372.16
2023-04-19T05:10:59.301Z,100371.27
2023-04-19T05:13:32.471Z,100374.42
2023-04-19T05:16:01.168Z,100371.06
2023-04-19T05:18:29.875Z,100365.91
2023-04-19T05:20:58.382Z,100371.86
2023-04-19T05:23:29.896Z,100366.69
2023-04-19T05:25:59.082Z,100369.34
2023-04-19T05:28:28.929Z,100363.67
2023-04-19T05:31:06.568Z,100365.88
2023-04-19T05:33:40.238Z,100366.70
2023-04-19T05:36:12.516Z,100367.56
2023-04-19T05:38:43.229Z,100365.44
2023-04-19T05:41:12.480Z,100363.77
2023-04-19T05:43:41.496Z,100357.77
2023-04-19T05:46:10.701Z,100353.30
2023-04-19T05:48:39.266Z,100355.75
2023-04-19T05:51:35.795Z,100356.45
2023-04-19T05:54:19.431Z,100353.83
2023-04-19T05:56:49.924Z,100353.82
2023-04-19T05:59:20.736Z,100351.76
2023-04-19T06:01:49.524Z,100349.61
2023-04-19T06:04:18.638Z,100348.52
2023-04-19T06:06:49.401Z,100346.97
2023-04-19T06:09:23.397Z,100347.21
2023-04-19T06:11:54.887Z,100346.76
2023-04-19T06:14:25.291Z,100352.94
2023-04-19T06:16:54.620Z,100343.60
2023-04-19T06:19:24.167Z,100343.02
2023-04-19T06:21:52.544Z,100341.19
2023-04-19T06:24:20.926Z,100343.67
2023-04-19T06:26:50.081Z,100348.41
2023-04-19T06:29:27.829Z,100348.83
2023-04-19T06:31:59.467Z,100346.30
2023-04-19T06:34:27.875Z,100347.93
2023-04-19T06:36:59.491Z,100342.58
2023-04-19T06:39:28.718Z,100342.27
2023-04-19T06:41:57.937Z,100340.63
2023-04-19T06:44:28.665Z,100335.20
2023-04-19T06:46:59.947Z,100332.08
2023-04-19T06:49:32.386Z,100335.34
2023-04-19T06:52:04.362Z,100335.23
2023-04-19T06:54:33.745Z,100332.08
2023-04-19T06:57:03.420Z,100334.94
2023-04-19T06:59:33.836Z,100334.89
2023-04-19T07:02:03.067Z,100334.52
2023-04-19T07:04:41.375Z,100336.17
2023-04-19T07:07:13.365Z,100336.30
2023-04-19T07:09:42.008Z,100334.63
2023-04-19T07:12:10.989Z,100335.41
2023-04-19T07:14:39.922Z,100335.03
2023-04-19T07:17:08.519Z,100332.95
2023-04-19T07:19:37.648Z,100335.23
2023-04-19T07:22:07.106Z,100336.86
2023-04-19T07:24:36.193Z,100334.19
2023-04-19T07:27:05.100Z,100337.35
2023-04-19T07:29:37.353Z,100334.58
2023-04-19T07:32:07.798Z,100336.73
2023-04-19T07:34:43.990Z,100338.45
2023-04-19T07:37:12.882Z,100344.24
2023-04-19T07:39:43.873Z,100343.67
2023-04-19T07:42:12.219Z,100342.96
2023-04-19T07:44:40.589Z,100338.09
2023-04-19T07:47:08.927Z,100336.64
2023-04-19T07:49:41.268Z,100330.25
2023-04-19T07:52:09.559Z,100326.64
2023-04-19T07:54:39.505Z,100327.99
2023-04-19T07:57:07.957Z,100327.13
2023-04-19T07:59:42.570Z,100325.59
2023-04-19T08:02:12.737Z,100323.27
2023-04-19T08:05:05.402Z,100323.26
2023-04-19T08:07:59.065Z,100321.05
2023-04-19T08:10:30.821Z,100318.59
2023-04-19T08:13:06.231Z,100311.58
2023-04-19T08:18:07.402Z,100303.42
2023-04-19T08:20:37.005Z,100307.36
2023-04-19T08:23:20.601Z,100299.68
2023-04-19T08:25:51.576Z,100299.08
2023-04-19T08:28:21.967Z,100298.48
2023-04-19T08:30:50.683Z,100296.18
2023-04-19T08:33:20.118Z,100293.13
2023-04-19T08:35:50.837Z,100286.56
2023-04-19T08:38:21.877Z,100287.27
2023-04-19T08:40:52.438Z,100288.32
2023-04-19T08:43:22.935Z,100285.81
2023-04-19T08:45:52.728Z,100282.30
2023-04-19T08:48:38.545Z,100276.86
2023-04-19T08:51:10.452Z,100277.20
2023-04-19T08:53:40.906Z,100277.96
2023-04-19T08:56:21.161Z,100276.43
2023-04-19T08:59:15.651Z,100275.59
2023-04-19T09:01:48.071Z,100284.82
2023-04-19T09:04:35.832Z,100280.56
2023-04-19T09:07:09.325Z,100279.27
2023-04-19T09:09:59.674Z,100278.27
2023-04-19T09:12:36.131Z,100280.30
2023-04-19T09:15:06.957Z,100288.69
2023-04-19T09:17:41.269Z,100283.92
2023-04-19T09:20:09.713Z,100288.42
2023-04-19T09:22:38.103Z,100287.88
2023-04-19T09:27:41.851Z,100292.25
2023-04-19T09:30:17.629Z,100290.77
2023-04-19T09:32:52.822Z,100287.86
2023-04-19T09:35:22.066Z,100287.63
2023-04-19T09:40:33.501Z,100276.07
2023-04-19T09:43:33.056Z,100286.27
2023-04-19T09:45:55.894Z,100279.34
2023-04-19T09:48:32.956Z,100270.05
2023-04-19T09:51:05.821Z,100276.40
2023-04-19T09:53:37.036Z,100277.77
2023-04-19T09:56:06.513Z,100275.80
2023-04-19T09:58:46.856Z,100282.05
2023-04-19T10:01:20.172Z,100281.01
2023-04-19T10:03:49.793Z,100282.29
2023-04-19T10:08:50.398Z,100272.97
2023-04-19T10:11:26.095Z,100272.86
2023-04-19T10:13:57.693Z,100280.67
2023-04-19T10:16:26.514Z,100274.01
2023-04-19T10:18:54.874Z,100272.02
2023-04-19T10:21:23.312Z,100270.73
2023-04-19T10:23:51.656Z,100264.91
2023-04-19T10:26:19.888Z,100269.38
2023-04-19T10:28:48.456Z,100275.83
2023-04-19T10:31:20.569Z,100273.66
2023-04-19T10:33:53.106Z,100275.22
2023-04-19T10:36:22.692Z,100280.11
2023-04-19T10:38:56.016Z,100280.27
2023-04-19T10:41:24.428Z,100280.30
2023-04-19T10:43:56.799Z,100277.06
2023-04-19T10:46:32.103Z,100284.52
2023-04-19T10:49:03.080Z,100288.59
2023-04-19T10:51:39.171Z,100289.21
2023-04-19T10:54:11.354Z,100288.52
2023-04-19T10:56:42.006Z,100294.89
2023-04-19T10:59:24.854Z,100299.92
2023-04-19T11:01:58.286Z,100301.99
2023-04-19T11:04:33.018Z,100304.50
2023-04-19T11:07:03.628Z,100309.88
2023-04-19T11:09:42.206Z,100309.20
2023-04-19T11:12:17.309Z,100313.17
2023-04-19T11:14:49.473Z,100317.15
2023-04-19T11:17:25.602Z,100312.27
2023-04-19T11:20:07.228Z,100313.46
2023-04-19T11:22:39.956Z,100315.98
2023-04-19T11:25:19.505Z,100314.25
2023-04-19T11:27:53.507Z,100312.85
2023-04-19T11:30:29.803Z,100321.05
2023-04-19T11:32:58.565Z,100316.77
2023-04-19T11:35:28.732Z,100317.53
2023-04-19T11:37:59.360Z,100310.23
2023-04-19T11:40:27.665Z,100314.06
2023-04-19T11:43:04.973Z,100315.09
2023-04-19T11:45:39.579Z,100315.42
2023-04-19T11:48:17.603Z,100311.64
2023-04-19T11:50:50.298Z,100310.58
2023-04-19T11:53:21.336Z,100311.52
2023-04-19T11:55:54.006Z,100313.22
2023-04-19T11:58:40.242Z,100311.86
2023-04-19T12:01:11.189Z,100313.11
2023-04-19T12:03:47.660Z,100311.83
2023-04-19T12:06:29.898Z,100311.30
2023-04-19T12:09:00.811Z,100314.20
2023-04-19T12:11:50.883Z,100314.70
2023-04-19T12:14:23.199Z,100320.08
2023-04-19T12:17:05.977Z,100324.08
2023-04-19T12:19:42.597Z,100329.36
2023-04-19T12:22:20.618Z,100324.63
2023-04-19T12:24:53.827Z,100320.20
2023-04-19T12:27:22.297Z,100321.63
2023-04-19T12:29:50.714Z,100319.55
2023-04-19T12:32:19.840Z,100321.84
2023-04-19T12:34:49.255Z,100326.33
2023-04-19T12:37:18.293Z,100324.09
2023-04-19T12:39:46.633Z,100324.69
2023-04-19T12:42:16.245Z,100325.20
2023-04-19T12:44:44.660Z,100328.66
2023-04-19T12:47:13.156Z,100329.27
2023-04-19T12:49:42.465Z,100328.69
2023-04-19T12:52:12.232Z,100331.77
2023-04-19T12:54:42.311Z,100335.13
2023-04-19T12:57:11.057Z,100335.20
2023-04-19T12:59:42.018Z,100337.80
2023-04-19T13:02:10.326Z,100336.91
2023-04-19T13:04:38.754Z,100337.61
2023-04-19T13:07:07.274Z,100337.01
2023-04-19T13:09:41.444Z,100336.39
2023-04-19T13:12:10.802Z,100336.36
2023-04-19T13:14:39.083Z,100337.82
2023-04-19T13:17:07.830Z,100337.09
2023-04-19T13:19:38.744Z,100337.64
2023-04-19T13:22:09.072Z,100335.19
2023-04-19T13:24:38.881Z,100334.16
2023-04-19T13:27:09.201Z,100336.49
2023-04-19T13:29:37.906Z,100336.05
2023-04-19T13:32:19.825Z,100335.23
2023-04-19T13:34:48.572Z,100336.46
2023-04-19T13:37:17.449Z,100334.77
2023-04-19T13:39:46.979Z,100337.84
2023-04-19T13:42:15.818Z,100334.45
2023-04-19T13:44:45.220Z,100333.92
2023-04-19T13:47:13.874Z,100338.14
2023-04-19T13:49:46.014Z,100339.83
2023-04-19T13:52:14.378Z,100338.64
2023-04-19T13:54:43.408Z,100334.61
2023-04-19T13:57:12.561Z,100340.80
2023-04-19T13:59:41.146Z,100342.93
2023-04-19T14:02:09.591Z,100339.66
2023-04-19T14:04:38.110Z,100341.44
2023-04-19T14:07:06.739Z,100343.16
2023-04-19T14:09:35.169Z,100346.50
2023-04-19T14:12:04.829Z,100345.52
2023-04-19T14:14:33.752Z,100350.92
2023-04-19T14:17:02.137Z,100348.67
2023-04-19T14:19:31.001Z,100355.05
2023-04-19T14:21:59.395Z,100359.55
2023-04-19T14:24:27.880Z,100362.23
2023-04-19T14:27:10.392Z,100361.08
2023-04-19T14:29:40.136Z,100362.92
2023-04-19T14:32:24.509Z,100359.20
2023-04-19T14:34:56.338Z,100359.30
2023-04-19T14:37:27.994Z,100359.12
2023-04-19T14:39:56.373Z,100355.20
2023-04-19T14:42:24.725Z,100356.40
2023-04-19T14:44:55.914Z,100358.41
2023-04-19T14:47:25.006Z,100361.13
2023-04-19T14:50:01.038Z,100360.50
2023-04-19T14:52:34.944Z,100362.75
2023-04-19T14:55:13.984Z,100361.52
2023-04-19T14:57:42.342Z,100357.84
2023-04-19T15:00:15.604Z,100355.32
2023-04-19T15:02:44.995Z,100357.25
2023-04-19T15:05:17.560Z,100358.12
2023-04-19T15:07:51.517Z,100363.00
2023-04-19T15:10:21.343Z,100362.17
2023-04-19T15:12:53.626Z,100362.50
2023-04-19T15:15:23.237Z,100363.18
2023-04-19T15:17:51.666Z,100369.52
2023-04-19T15:20:20.664Z,100366.75
2023-04-19T15:22:56.421Z,100370.98
2023-04-19T15:25:36.147Z,100371.66
2023-04-19T15:28:10.985Z,100367.66
2023-04-19T15:30:40.819Z,100361.94
2023-04-19T15:33:09.666Z,100355.01
2023-04-19T15:35:39.936Z,100349.58
2023-04-19T15:38:08.257Z,100347.61
2023-04-19T15:40:38.741Z,100346.70
2023-04-19T15:43:07.184Z,100341.13
2023-04-19T15:45:36.567Z,100336.02
2023-04-19T15:48:05.044Z,100337.20
2023-04-19T15:50:37.059Z,100335.52
2023-04-19T15:53:06.611Z,100336.80
2023-04-19T15:55:36.442Z,100335.36
2023-04-19T15:58:07.949Z,100337.73
2023-04-19T16:00:38.690Z,100333.53
2023-04-19T16:03:14.979Z,100333.63
2023-04-19T16:05:43.656Z,100336.69
2023-04-19T16:08:12.101Z,100335.52
2023-04-19T16:10:40.463Z,100337.02
2023-04-19T16:13:09.085Z,100334.80
2023-04-19T16:15:37.252Z,100337.05
2023-04-19T16:18:07.033Z,100342.73
2023-04-19T16:20:35.557Z,100342.73
2023-04-19T16:23:04.326Z,100344.75
2023-04-19T16:25:35.693Z,100343.58
2023-04-19T16:28:04.760Z,100347.14
2023-04-19T16:30:35.593Z,100348.50
2023-04-19T16:33:04.117Z,100348.73
2023-04-19T16:35:49.195Z,100348.42
2023-04-19T16:38:17.390Z,100350.16
2023-04-19T16:40:48.810Z,100351.78
2023-04-19T16:43:17.574Z,100351.24
2023-04-19T16:45:49.726Z,100353.13
2023-04-19T16:48:24.594Z,100357.28
2023-04-19T16:50:54.243Z,100357.21
2023-04-19T16:53:24.955Z,100361.17
2023-04-19T16:55:54.493Z,100362.73
2023-04-19T16:58:24.850Z,100370.53
2023-04-19T17:00:55.913Z,100378.09
2023-04-19T17:03:29.225Z,100375.26
2023-04-19T17:06:00.632Z,100378.15
2023-04-19T17:08:33.038Z,100378.88
2023-04-19T17:11:04.248Z,100382.45
2023-04-19T17:13:47.958Z,100388.10
2023-04-19T17:16:18.039Z,100386.13
2023-04-19T17:18:57.103Z,100388.73
2023-04-19T17:21:28.007Z,100391.61
2023-04-19T17:23:59.486Z,100391.77
2023-04-19T17:26:28.494Z,100394.42
2023-04-19T17:29:01.932Z,100396.27
2023-04-19T17:31:32.723Z,100399.11
2023-04-19T17:34:01.801Z,100402.96
2023-04-19T17:36:32.472Z,100405.60
2023-04-19T17:39:19.176Z,100411.34
2023-04-19T17:41:50.364Z,100413.10
2023-04-19T17:44:18.608Z,100413.11
2023-04-19T17:46:47.085Z,100420.69
2023-04-19T17:49:19.227Z,100425.99
2023-04-19T17:51:49.543Z,100426.94
2023-04-19T17:54:19.150Z,100426.16
2023-04-19T17:56:49.188Z,100427.27
2023-04-19T17:59:17.743Z,100422.35
2023-04-19T18:01:47.149Z,100426.05
2023-04-19T18:04:20.267Z,100428.33
2023-04-19T18:06:48.894Z,100431.53
2023-04-19T18:09:20.044Z,100432.86
2023-04-19T18:11:48.282Z,100435.09
2023-04-19T18:14:17.167Z,100432.98
2023-04-19T18:16:45.853Z,100434.08
2023-04-19T18:19:19.018Z,100436.70
2023-04-19T18:21:47.925Z,100438.52
2023-04-19T18:24:16.182Z,100443.21
2023-04-19T18:26:50.307Z,100440.13
2023-04-19T18:29:21.072Z,100441.55
2023-04-19T18:31:49.377Z,100446.67
2023-04-19T18:34:18.016Z,100445.13
2023-04-19T18:36:47.679Z,100449.82
2023-04-19T18:39:17.821Z,100453.11
2023-04-19T18:41:46.524Z,100457.60
2023-04-19T18:44:39.011Z,100458.90
2023-04-19T18:47:04.011Z,100456.45
2023-04-19T18:49:32.797Z,100459.01
2023-04-19T18:52:01.390Z,100463.90
2023-04-19T18:54:30.177Z,100463.16
2023-04-19T18:57:21.707Z,100470.66
2023-04-19T18:59:48.581Z,100471.69
2023-04-19T19:02:17.011Z,100471.79
2023-04-19T19:04:56.098Z,100472.75
2023-04-19T19:07:36.441Z,100474.08
2023-04-19T19:12:43.113Z,100482.58
2023-04-19T19:15:11.382Z,100483.03
2023-04-19T19:17:39.760Z,100484.54
2023-04-19T19:20:10.587Z,100484.20
2023-04-19T19:22:39.047Z,100479.77
2023-04-19T19:25:07.737Z,100478.61
2023-04-19T19:27:36.379Z,100477.86
2023-04-19T19:30:08.727Z,100476.02
2023-04-19T19:32:37.996Z,100472.73
2023-04-19T19:35:09.726Z,100471.19
2023-04-19T19:37:39.505Z,100469.17
2023-04-19T19:40:11.155Z,100464.19
2023-04-19T19:43:02.634Z,100459.64
2023-04-19T19:45:32.398Z,100458.04
2023-04-19T19:48:01.242Z,100455.70
2023-04-19T19:53:02.004Z,100454.92
2023-04-19T19:55:30.867Z,100453.80
2023-04-19T20:00:45.108Z,100454.17
2023-04-19T20:03:15.072Z,100450.48
2023-04-19T20:05:44.393Z,100450.43
2023-04-19T20:08:13.636Z,100448.76
2023-04-19T20:10:42.892Z,100450.42
2023-04-19T20:13:16.374Z,100448.33
2023-04-19T20:15:47.496Z,100447.52
2023-04-19T20:18:17.953Z,100447.20
2023-04-19T20:20:46.316Z,100445.98
2023-04-19T20:23:15.884Z,100450.28
2023-04-19T20:25:44.265Z,100447.70
2023-04-19T20:28:13.598Z,100444.70
2023-04-19T20:30:42.013Z,100442.33
2023-04-19T20:33:10.606Z,100438.99
2023-04-19T20:35:39.283Z,100439.54
2023-04-19T20:38:09.920Z,100441.32
2023-04-19T20:40:38.230Z,100440.79
2023-04-19T20:43:08.425Z,100439.30
2023-04-19T20:45:37.152Z,100437.56
2023-04-19T20:48:06.355Z,100437.43
2023-04-19T20:50:35.591Z,100435.36
2023-04-19T20:53:04.055Z,100433.88
2023-04-19T20:55:32.440Z,100431.64
2023-04-19T20:58:02.814Z,100429.56
2023-04-19T21:00:31.601Z,100428.63
2023-04-19T21:03:04.701Z,100425.99
2023-04-19T21:05:35.454Z,100423.64
2023-04-19T21:08:04.301Z,100421.19
2023-04-19T21:10:32.994Z,100418.95
2023-04-19T21:13:01.333Z,100419.51
2023-04-19T21:15:29.692Z,100416.12
2023-04-19T21:17:58.076Z,100417.92
2023-04-19T21:20:26.473Z,100418.73
2023-04-19T21:22:54.767Z,100417.65
2023-04-19T21:25:23.157Z,100419.85
2023-04-19T21:27:51.371Z,100418.41
2023-04-19T21:30:20.873Z,100411.60
2023-04-19T21:32:50.561Z,100414.19
2023-04-19T21:35:19.858Z,100412.36
2023-04-19T21:37:48.106Z,100407.95
2023-04-19T21:40:16.306Z,100405.73
2023-04-19T21:42:44.742Z,100404.09
2023-04-19T21:45:12.977Z,100402.70
2023-04-19T21:47:41.504Z,100399.70
2023-04-19T21:50:10.913Z,100394.53
2023-04-19T21:52:40.734Z,100395.48
2023-04-19T21:55:09.237Z,100393.27
2023-04-19T21:57:39.379Z,100393.23
2023-04-19T22:00:12.136Z,100386.63
2023-04-19T22:02:45.611Z,100386.41
2023-04-19T22:05:13.933Z,100387.34
2023-04-19T22:07:43.188Z,100379.79
2023-04-19T22:10:13.931Z,100381.50
2023-04-19T22:12:55.073Z,100378.13
2023-04-19T22:15:27.073Z,100371.85
2023-04-19T22:17:57.653Z,100370.73
2023-04-19T22:20:29.512Z,100367.71
2023-04-19T22:22:57.842Z,100367.47
2023-04-19T22:25:26.523Z,100365.21
2023-04-19T22:27:55.406Z,100364.52
2023-04-19T22:30:23.641Z,100360.43
2023-04-19T22:32:52.232Z,100358.25
2023-04-19T22:35:22.713Z,100354.54
2023-04-19T22:37:51.454Z,100350.68
2023-04-19T22:40:20.050Z,100344.89
2023-04-19T22:42:48.768Z,100347.52
2023-04-19T22:45:17.020Z,100347.14
2023-04-19T22:47:45.724Z,100347.94
2023-04-19T22:50:14.021Z,100347.89
2023-04-19T22:52:42.790Z,100344.55
2023-04-19T22:55:11.298Z,100339.09
2023-04-19T22:57:41.287Z,100338.45
2023-04-19T23:00:11.309Z,100336.52
2023-04-19T23:02:40.472Z,100333.23
2023-04-19T23:05:09.213Z,100331.16
2023-04-19T23:07:42.196Z,100331.30
2023-04-19T23:10:12.587Z,100331.58
2023-04-19T23:12:41.492Z,100324.86
2023-04-19T23:15:11.289Z,100318.32
2023-04-19T23:17:40.011Z,100319.82
2023-04-19T23:20:11.981Z,100317.34
2023-04-19T23:22:40.729Z,100315.03
2023-04-19T23:25:09.555Z,100315.17
2023-04-19T23:27:39.304Z,100309.89
2023-04-19T23:30:09.225Z,100315.42
2023-04-19T23:32:38.161Z,100309.20
2023-04-19T23:35:06.586Z,100306.69
2023-04-19T23:37:35.525Z,100308.20
2023-04-19T23:40:10.613Z,100303.21
2023-04-19T23:42:39.092Z,100304.27
2023-04-19T23:45:07.693Z,100299.34
2023-04-19T23:47:36.925Z,100304.33
2023-04-19T23:50:05.484Z,100305.00
2023-04-19T23:52:35.748Z,100299.73
2023-04-19T23:55:04.796Z,100299.13
2023-04-19T23:57:36.258Z,100293.40
